sensor_id;sensor_type;location;lat;lon;timestamp;P1;durP1;ratioP1;P2;durP2;ratioP2
850;SDS011;412;51.400;7.480;2023-07-09T00:01:16;8.00;;;7.20;;
850;SDS011;412;51.400;7.480;2023-07-09T00:03:43;8.30;;;7.53;;
850;SDS011;412;51.400;7.480;2023-07-09T00:06:10;8.10;;;7.30;;
850;SDS011;412;51.400;7.480;2023-07-09T00:08:38;7.97;;;7.27;;
850;SDS011;412;51.400;7.480;2023-07-09T00:11:08;8.00;;;7.10;;
850;SDS011;412;51.400;7.480;2023-07-09T00:13:37;9.00;;;8.13;;
850;SDS011;412;51.400;7.480;2023-07-09T00:16:03;7.20;;;6.60;;
850;SDS011;412;51.400;7.480;2023-07-09T00:18:36;7.03;;;6.53;;
850;SDS011;412;51.400;7.480;2023-07-09T00:21:02;7.27;;;6.60;;
850;SDS011;412;51.400;7.480;2023-07-09T00:23:28;6.63;;;6.03;;
850;SDS011;412;51.400;7.480;2023-07-09T00:25:54;9.30;;;7.30;;
850;SDS011;412;51.400;7.480;2023-07-09T00:28:20;7.10;;;6.60;;
850;SDS011;412;51.400;7.480;2023-07-09T00:30:46;7.47;;;6.67;;
850;SDS011;412;51.400;7.480;2023-07-09T00:33:14;7.90;;;7.20;;
850;SDS011;412;51.400;7.480;2023-07-09T00:35:47;7.30;;;6.60;;
850;SDS011;412;51.400;7.480;2023-07-09T00:38:18;7.13;;;6.63;;
850;SDS011;412;51.400;7.480;2023-07-09T00:41:02;7.50;;;6.90;;
850;SDS011;412;51.400;7.480;2023-07-09T00:43:33;7.63;;;6.93;;
850;SDS011;412;51.400;7.480;2023-07-09T00:46:11;7.60;;;7.00;;
850;SDS011;412;51.400;7.480;2023-07-09T00:48:42;7.10;;;6.60;;
850;SDS011;412;51.400;7.480;2023-07-09T00:51:10;8.17;;;7.53;;
850;SDS011;412;51.400;7.480;2023-07-09T00:53:39;8.50;;;7.70;;
850;SDS011;412;51.400;7.480;2023-07-09T00:56:12;8.50;;;7.27;;
850;SDS011;412;51.400;7.480;2023-07-09T00:58:42;8.80;;;8.10;;
850;SDS011;412;51.400;7.480;2023-07-09T01:01:12;7.60;;;6.93;;
850;SDS011;412;51.400;7.480;2023-07-09T01:03:48;7.70;;;7.10;;
850;SDS011;412;51.400;7.480;2023-07-09T01:06:28;7.80;;;7.20;;
850;SDS011;412;51.400;7.480;2023-07-09T01:08:58;8.00;;;7.30;;
850;SDS011;412;51.400;7.480;2023-07-09T01:11:25;7.40;;;6.80;;
850;SDS011;412;51.400;7.480;2023-07-09T01:13:52;7.83;;;7.20;;
850;SDS011;412;51.400;7.480;2023-07-09T01:16:22;8.03;;;7.37;;
850;SDS011;412;51.400;7.480;2023-07-09T01:18:51;8.30;;;7.50;;
850;SDS011;412;51.400;7.480;2023-07-09T01:21:17;8.37;;;7.67;;
850;SDS011;412;51.400;7.480;2023-07-09T01:23:46;6.80;;;6.30;;
850;SDS011;412;51.400;7.480;2023-07-09T01:26:14;11.33;;;7.70;;
850;SDS011;412;51.400;7.480;2023-07-09T01:28:51;8.87;;;8.07;;
850;SDS011;412;51.400;7.480;2023-07-09T01:31:17;8.07;;;7.37;;
850;SDS011;412;51.400;7.480;2023-07-09T01:33:43;8.47;;;7.87;;
850;SDS011;412;51.400;7.480;2023-07-09T01:36:14;8.40;;;7.80;;
850;SDS011;412;51.400;7.480;2023-07-09T01:38:48;7.17;;;6.57;;
850;SDS011;412;51.400;7.480;2023-07-09T01:41:16;7.50;;;6.90;;
850;SDS011;412;51.400;7.480;2023-07-09T01:43:43;7.80;;;7.20;;
850;SDS011;412;51.400;7.480;2023-07-09T01:46:09;8.17;;;7.37;;
850;SDS011;412;51.400;7.480;2023-07-09T01:48:37;7.00;;;6.47;;
850;SDS011;412;51.400;7.480;2023-07-09T01:51:06;7.00;;;6.40;;
850;SDS011;412;51.400;7.480;2023-07-09T01:53:34;7.37;;;6.77;;
850;SDS011;412;51.400;7.480;2023-07-09T01:56:02;6.90;;;6.40;;
850;SDS011;412;51.400;7.480;2023-07-09T01:58:29;7.63;;;6.80;;
850;SDS011;412;51.400;7.480;2023-07-09T02:00:55;7.73;;;7.00;;
850;SDS011;412;51.400;7.480;2023-07-09T02:03:21;8.10;;;7.40;;
850;SDS011;412;51.400;7.480;2023-07-09T02:05:50;8.50;;;7.80;;
850;SDS011;412;51.400;7.480;2023-07-09T02:08:18;7.00;;;6.50;;
850;SDS011;412;51.400;7.480;2023-07-09T02:10:44;9.13;;;8.37;;
850;SDS011;412;51.400;7.480;2023-07-09T02:13:10;8.43;;;7.60;;
850;SDS011;412;51.400;7.480;2023-07-09T02:15:36;7.57;;;6.93;;
850;SDS011;412;51.400;7.480;2023-07-09T02:18:02;8.23;;;7.53;;
850;SDS011;412;51.400;7.480;2023-07-09T02:20:28;8.23;;;7.63;;
850;SDS011;412;51.400;7.480;2023-07-09T02:22:53;9.13;;;8.30;;
850;SDS011;412;51.400;7.480;2023-07-09T02:25:19;9.27;;;8.57;;
850;SDS011;412;51.400;7.480;2023-07-09T02:27:45;9.37;;;8.67;;
850;SDS011;412;51.400;7.480;2023-07-09T02:30:10;9.67;;;8.87;;
850;SDS011;412;51.400;7.480;2023-07-09T02:32:36;9.57;;;8.57;;
850;SDS011;412;51.400;7.480;2023-07-09T02:35:02;9.53;;;8.83;;
850;SDS011;412;51.400;7.480;2023-07-09T02:37:29;10.07;;;9.27;;
850;SDS011;412;51.400;7.480;2023-07-09T02:39:55;10.13;;;9.33;;
850;SDS011;412;51.400;7.480;2023-07-09T02:42:21;10.23;;;9.23;;
850;SDS011;412;51.400;7.480;2023-07-09T02:44:48;9.33;;;8.50;;
850;SDS011;412;51.400;7.480;2023-07-09T02:47:14;9.57;;;8.77;;
850;SDS011;412;51.400;7.480;2023-07-09T02:49:40;9.50;;;8.70;;
850;SDS011;412;51.400;7.480;2023-07-09T02:52:06;11.73;;;8.60;;
850;SDS011;412;51.400;7.480;2023-07-09T02:54:32;11.03;;;9.27;;
850;SDS011;412;51.400;7.480;2023-07-09T02:56:58;10.73;;;9.73;;
850;SDS011;412;51.400;7.480;2023-07-09T02:59:24;11.23;;;10.13;;
850;SDS011;412;51.400;7.480;2023-07-09T03:01:51;10.33;;;9.57;;
850;SDS011;412;51.400;7.480;2023-07-09T03:04:17;10.13;;;9.33;;
850;SDS011;412;51.400;7.480;2023-07-09T03:06:45;9.97;;;9.07;;
850;SDS011;412;51.400;7.480;2023-07-09T03:09:11;11.10;;;10.10;;
850;SDS011;412;51.400;7.480;2023-07-09T03:11:37;11.07;;;10.07;;
850;SDS011;412;51.400;7.480;2023-07-09T03:14:03;10.10;;;9.30;;
850;SDS011;412;51.400;7.480;2023-07-09T03:16:32;10.73;;;9.93;;
850;SDS011;412;51.400;7.480;2023-07-09T03:18:58;10.73;;;9.83;;
850;SDS011;412;51.400;7.480;2023-07-09T03:21:25;10.20;;;9.30;;
850;SDS011;412;51.400;7.480;2023-07-09T03:23:53;10.70;;;9.90;;
850;SDS011;412;51.400;7.480;2023-07-09T03:26:19;10.73;;;9.77;;
850;SDS011;412;51.400;7.480;2023-07-09T03:28:45;10.67;;;9.80;;
850;SDS011;412;51.400;7.480;2023-07-09T03:31:11;11.00;;;10.10;;
850;SDS011;412;51.400;7.480;2023-07-09T03:33:36;10.73;;;9.83;;
850;SDS011;412;51.400;7.480;2023-07-09T03:36:02;11.10;;;10.10;;
850;SDS011;412;51.400;7.480;2023-07-09T03:38:29;11.00;;;9.90;;
850;SDS011;412;51.400;7.480;2023-07-09T03:40:56;11.20;;;10.20;;
850;SDS011;412;51.400;7.480;2023-07-09T03:43:22;11.63;;;10.67;;
850;SDS011;412;51.400;7.480;2023-07-09T03:45:49;11.03;;;10.03;;
850;SDS011;412;51.400;7.480;2023-07-09T03:48:16;10.97;;;10.17;;
850;SDS011;412;51.400;7.480;2023-07-09T03:50:43;11.37;;;10.40;;
850;SDS011;412;51.400;7.480;2023-07-09T03:53:11;11.83;;;10.80;;
850;SDS011;412;51.400;7.480;2023-07-09T03:55:36;11.97;;;10.87;;
850;SDS011;412;51.400;7.480;2023-07-09T03:58:02;12.80;;;11.70;;
850;SDS011;412;51.400;7.480;2023-07-09T04:00:29;12.30;;;11.40;;
850;SDS011;412;51.400;7.480;2023-07-09T04:02:54;11.97;;;10.87;;
850;SDS011;412;51.400;7.480;2023-07-09T04:05:25;11.50;;;10.67;;
850;SDS011;412;51.400;7.480;2023-07-09T04:07:51;12.60;;;11.60;;
850;SDS011;412;51.400;7.480;2023-07-09T04:10:17;12.20;;;11.30;;
850;SDS011;412;51.400;7.480;2023-07-09T04:12:43;13.10;;;11.90;;
850;SDS011;412;51.400;7.480;2023-07-09T04:15:09;12.87;;;11.63;;
850;SDS011;412;51.400;7.480;2023-07-09T04:17:37;12.17;;;11.07;;
850;SDS011;412;51.400;7.480;2023-07-09T04:20:04;12.70;;;11.60;;
850;SDS011;412;51.400;7.480;2023-07-09T04:22:31;13.23;;;12.23;;
850;SDS011;412;51.400;7.480;2023-07-09T04:24:57;12.30;;;11.40;;
850;SDS011;412;51.400;7.480;2023-07-09T04:27:23;13.37;;;12.27;;
850;SDS011;412;51.400;7.480;2023-07-09T04:29:52;12.57;;;11.57;;
850;SDS011;412;51.400;7.480;2023-07-09T04:32:19;12.83;;;11.53;;
850;SDS011;412;51.400;7.480;2023-07-09T04:34:45;12.10;;;11.20;;
850;SDS011;412;51.400;7.480;2023-07-09T04:37:11;11.70;;;10.80;;
850;SDS011;412;51.400;7.480;2023-07-09T04:39:38;12.73;;;11.43;;
850;SDS011;412;51.400;7.480;2023-07-09T04:42:05;12.23;;;11.23;;
850;SDS011;412;51.400;7.480;2023-07-09T04:44:35;12.23;;;11.23;;
850;SDS011;412;51.400;7.480;2023-07-09T04:47:01;11.60;;;10.70;;
850;SDS011;412;51.400;7.480;2023-07-09T04:49:26;11.60;;;10.53;;
850;SDS011;412;51.400;7.480;2023-07-09T04:51:52;12.60;;;11.57;;
850;SDS011;412;51.400;7.480;2023-07-09T04:54:18;10.27;;;9.47;;
850;SDS011;412;51.400;7.480;2023-07-09T04:56:44;13.80;;;12.50;;
850;SDS011;412;51.400;7.480;2023-07-09T04:59:12;11.23;;;10.33;;
850;SDS011;412;51.400;7.480;2023-07-09T05:01:38;21.77;;;15.40;;
850;SDS011;412;51.400;7.480;2023-07-09T05:04:04;14.23;;;12.80;;
850;SDS011;412;51.400;7.480;2023-07-09T05:06:29;12.40;;;11.30;;
850;SDS011;412;51.400;7.480;2023-07-09T05:08:55;12.67;;;11.03;;
850;SDS011;412;51.400;7.480;2023-07-09T05:11:21;13.03;;;11.77;;
850;SDS011;412;51.400;7.480;2023-07-09T05:13:47;13.33;;;12.13;;
850;SDS011;412;51.400;7.480;2023-07-09T05:16:13;11.10;;;10.10;;
850;SDS011;412;51.400;7.480;2023-07-09T05:18:39;10.37;;;9.47;;
850;SDS011;412;51.400;7.480;2023-07-09T05:21:05;10.43;;;9.53;;
850;SDS011;412;51.400;7.480;2023-07-09T05:23:31;10.60;;;9.60;;
850;SDS011;412;51.400;7.480;2023-07-09T05:26:00;9.97;;;9.17;;
850;SDS011;412;51.400;7.480;2023-07-09T05:28:27;11.50;;;10.43;;
850;SDS011;412;51.400;7.480;2023-07-09T05:30:53;10.00;;;9.10;;
850;SDS011;412;51.400;7.480;2023-07-09T05:33:19;11.67;;;10.70;;
850;SDS011;412;51.400;7.480;2023-07-09T05:35:45;10.33;;;9.40;;
850;SDS011;412;51.400;7.480;2023-07-09T05:38:12;9.70;;;8.90;;
850;SDS011;412;51.400;7.480;2023-07-09T05:40:38;10.07;;;9.00;;
850;SDS011;412;51.400;7.480;2023-07-09T05:43:04;10.70;;;9.67;;
850;SDS011;412;51.400;7.480;2023-07-09T05:45:31;11.10;;;9.93;;
850;SDS011;412;51.400;7.480;2023-07-09T05:48:00;9.30;;;8.40;;
850;SDS011;412;51.400;7.480;2023-07-09T05:50:26;11.57;;;10.40;;
850;SDS011;412;51.400;7.480;2023-07-09T05:52:53;11.60;;;10.40;;
850;SDS011;412;51.400;7.480;2023-07-09T05:55:19;11.10;;;10.20;;
850;SDS011;412;51.400;7.480;2023-07-09T05:57:45;11.60;;;10.50;;
850;SDS011;412;51.400;7.480;2023-07-09T06:00:11;11.53;;;10.43;;
850;SDS011;412;51.400;7.480;2023-07-09T06:02:37;16.00;;;14.50;;
850;SDS011;412;51.400;7.480;2023-07-09T06:05:04;10.70;;;9.80;;
850;SDS011;412;51.400;7.480;2023-07-09T06:07:30;9.20;;;8.50;;
850;SDS011;412;51.400;7.480;2023-07-09T06:09:56;9.63;;;8.80;;
850;SDS011;412;51.400;7.480;2023-07-09T06:12:22;10.63;;;9.80;;
850;SDS011;412;51.400;7.480;2023-07-09T06:14:48;9.77;;;8.87;;
850;SDS011;412;51.400;7.480;2023-07-09T06:17:14;10.47;;;9.47;;
850;SDS011;412;51.400;7.480;2023-07-09T06:19:40;9.73;;;8.80;;
850;SDS011;412;51.400;7.480;2023-07-09T06:22:05;9.43;;;8.63;;
850;SDS011;412;51.400;7.480;2023-07-09T06:24:31;9.23;;;8.30;;
850;SDS011;412;51.400;7.480;2023-07-09T06:26:57;10.73;;;9.73;;
850;SDS011;412;51.400;7.480;2023-07-09T06:29:24;13.37;;;12.07;;
850;SDS011;412;51.400;7.480;2023-07-09T06:31:50;13.30;;;12.00;;
850;SDS011;412;51.400;7.480;2023-07-09T06:34:16;10.23;;;9.40;;
850;SDS011;412;51.400;7.480;2023-07-09T06:36:41;10.57;;;9.57;;
850;SDS011;412;51.400;7.480;2023-07-09T06:39:07;10.40;;;9.40;;
850;SDS011;412;51.400;7.480;2023-07-09T06:41:33;9.63;;;8.73;;
850;SDS011;412;51.400;7.480;2023-07-09T06:44:04;10.10;;;9.13;;
850;SDS011;412;51.400;7.480;2023-07-09T06:46:31;9.90;;;8.90;;
850;SDS011;412;51.400;7.480;2023-07-09T06:48:56;9.70;;;8.80;;
850;SDS011;412;51.400;7.480;2023-07-09T06:51:22;10.53;;;9.73;;
850;SDS011;412;51.400;7.480;2023-07-09T06:53:48;10.07;;;9.10;;
850;SDS011;412;51.400;7.480;2023-07-09T06:56:15;10.83;;;9.83;;
850;SDS011;412;51.400;7.480;2023-07-09T06:58:41;9.50;;;8.60;;
850;SDS011;412;51.400;7.480;2023-07-09T07:01:07;9.33;;;8.43;;
850;SDS011;412;51.400;7.480;2023-07-09T07:03:35;9.47;;;8.73;;
850;SDS011;412;51.400;7.480;2023-07-09T07:06:00;10.63;;;9.53;;
850;SDS011;412;51.400;7.480;2023-07-09T07:08:27;11.40;;;9.00;;
850;SDS011;412;51.400;7.480;2023-07-09T07:10:55;10.13;;;9.30;;
850;SDS011;412;51.400;7.480;2023-07-09T07:16:06;9.87;;;8.90;;
850;SDS011;412;51.400;7.480;2023-07-09T07:18:35;9.27;;;8.47;;
850;SDS011;412;51.400;7.480;2023-07-09T07:21:04;10.67;;;9.67;;
850;SDS011;412;51.400;7.480;2023-07-09T07:23:31;9.63;;;8.77;;
850;SDS011;412;51.400;7.480;2023-07-09T07:25:57;9.40;;;8.70;;
850;SDS011;412;51.400;7.480;2023-07-09T07:28:23;9.33;;;8.47;;
850;SDS011;412;51.400;7.480;2023-07-09T07:30:58;9.20;;;8.40;;
850;SDS011;412;51.400;7.480;2023-07-09T07:33:29;8.50;;;7.80;;
850;SDS011;412;51.400;7.480;2023-07-09T07:35:54;8.10;;;7.50;;
850;SDS011;412;51.400;7.480;2023-07-09T07:38:20;13.77;;;11.37;;
850;SDS011;412;51.400;7.480;2023-07-09T07:40:46;10.20;;;9.40;;
850;SDS011;412;51.400;7.480;2023-07-09T07:43:14;8.67;;;7.97;;
850;SDS011;412;51.400;7.480;2023-07-09T07:45:40;9.73;;;8.47;;
850;SDS011;412;51.400;7.480;2023-07-09T07:48:07;8.37;;;7.53;;
850;SDS011;412;51.400;7.480;2023-07-09T07:50:33;9.20;;;8.40;;
850;SDS011;412;51.400;7.480;2023-07-09T07:52:58;8.20;;;7.50;;
850;SDS011;412;51.400;7.480;2023-07-09T07:55:24;9.57;;;8.77;;
850;SDS011;412;51.400;7.480;2023-07-09T07:57:50;9.33;;;8.53;;
850;SDS011;412;51.400;7.480;2023-07-09T08:00:16;8.40;;;7.73;;
850;SDS011;412;51.400;7.480;2023-07-09T08:02:42;9.13;;;8.33;;
850;SDS011;412;51.400;7.480;2023-07-09T08:05:07;9.03;;;8.30;;
850;SDS011;412;51.400;7.480;2023-07-09T08:07:33;9.37;;;8.47;;
850;SDS011;412;51.400;7.480;2023-07-09T08:09:59;8.83;;;8.23;;
850;SDS011;412;51.400;7.480;2023-07-09T08:12:25;9.93;;;9.10;;
850;SDS011;412;51.400;7.480;2023-07-09T08:14:50;10.37;;;9.40;;
850;SDS011;412;51.400;7.480;2023-07-09T08:17:16;11.50;;;10.53;;
850;SDS011;412;51.400;7.480;2023-07-09T08:19:46;9.37;;;8.57;;
850;SDS011;412;51.400;7.480;2023-07-09T08:22:17;10.10;;;9.20;;
850;SDS011;412;51.400;7.480;2023-07-09T08:24:45;8.83;;;8.13;;
850;SDS011;412;51.400;7.480;2023-07-09T08:27:11;9.33;;;8.53;;
850;SDS011;412;51.400;7.480;2023-07-09T08:29:37;9.20;;;8.40;;
850;SDS011;412;51.400;7.480;2023-07-09T08:32:04;8.00;;;7.33;;
850;SDS011;412;51.400;7.480;2023-07-09T08:34:30;9.43;;;8.70;;
850;SDS011;412;51.400;7.480;2023-07-09T08:36:56;8.97;;;8.23;;
850;SDS011;412;51.400;7.480;2023-07-09T08:39:22;9.13;;;8.33;;
850;SDS011;412;51.400;7.480;2023-07-09T08:41:51;10.13;;;9.13;;
850;SDS011;412;51.400;7.480;2023-07-09T08:50:00;9.90;;;9.10;;
850;SDS011;412;51.400;7.480;2023-07-09T08:52:36;10.73;;;9.83;;
850;SDS011;412;51.400;7.480;2023-07-09T08:55:08;19.00;;;17.30;;
850;SDS011;412;51.400;7.480;2023-07-09T08:57:50;11.67;;;10.30;;
850;SDS011;412;51.400;7.480;2023-07-09T09:00:29;9.57;;;8.77;;
850;SDS011;412;51.400;7.480;2023-07-09T09:03:09;10.37;;;9.47;;
850;SDS011;412;51.400;7.480;2023-07-09T09:05:40;10.27;;;9.37;;
850;SDS011;412;51.400;7.480;2023-07-09T09:08:11;9.80;;;9.10;;
850;SDS011;412;51.400;7.480;2023-07-09T09:10:48;11.37;;;8.87;;
850;SDS011;412;51.400;7.480;2023-07-09T09:13:23;9.60;;;8.90;;
850;SDS011;412;51.400;7.480;2023-07-09T09:15:51;10.70;;;9.90;;
850;SDS011;412;51.400;7.480;2023-07-09T09:18:26;9.70;;;8.90;;
850;SDS011;412;51.400;7.480;2023-07-09T09:20:55;12.77;;;9.30;;
850;SDS011;412;51.400;7.480;2023-07-09T09:23:41;10.77;;;9.87;;
850;SDS011;412;51.400;7.480;2023-07-09T09:26:24;10.37;;;9.50;;
850;SDS011;412;51.400;7.480;2023-07-09T09:28:55;10.00;;;9.10;;
850;SDS011;412;51.400;7.480;2023-07-09T09:31:21;10.60;;;9.80;;
850;SDS011;412;51.400;7.480;2023-07-09T09:33:49;10.97;;;9.87;;
850;SDS011;412;51.400;7.480;2023-07-09T09:36:20;10.90;;;9.90;;
850;SDS011;412;51.400;7.480;2023-07-09T09:38:50;9.87;;;9.07;;
850;SDS011;412;51.400;7.480;2023-07-09T09:41:18;10.30;;;9.50;;
850;SDS011;412;51.400;7.480;2023-07-09T09:43:49;11.80;;;10.63;;
850;SDS011;412;51.400;7.480;2023-07-09T09:46:21;13.57;;;12.37;;
850;SDS011;412;51.400;7.480;2023-07-09T09:48:49;10.10;;;9.40;;
850;SDS011;412;51.400;7.480;2023-07-09T09:51:18;10.50;;;9.70;;
850;SDS011;412;51.400;7.480;2023-07-09T09:53:45;9.80;;;9.10;;
850;SDS011;412;51.400;7.480;2023-07-09T09:56:17;10.47;;;9.57;;
850;SDS011;412;51.400;7.480;2023-07-09T09:58:44;11.00;;;10.13;;
850;SDS011;412;51.400;7.480;2023-07-09T10:01:15;10.27;;;9.60;;
850;SDS011;412;51.400;7.480;2023-07-09T10:03:42;10.80;;;10.00;;
850;SDS011;412;51.400;7.480;2023-07-09T10:06:19;11.60;;;10.50;;
850;SDS011;412;51.400;7.480;2023-07-09T10:16:52;10.10;;;9.40;;
850;SDS011;412;51.400;7.480;2023-07-09T10:22:34;10.50;;;9.80;;
850;SDS011;412;51.400;7.480;2023-07-09T10:36:33;9.80;;;9.10;;
850;SDS011;412;51.400;7.480;2023-07-09T10:39:13;9.00;;;8.13;;
850;SDS011;412;51.400;7.480;2023-07-09T10:41:40;9.27;;;8.60;;
850;SDS011;412;51.400;7.480;2023-07-09T10:44:12;10.10;;;9.40;;
850;SDS011;412;51.400;7.480;2023-07-09T10:46:53;9.50;;;8.80;;
850;SDS011;412;51.400;7.480;2023-07-09T10:49:40;9.33;;;8.60;;
850;SDS011;412;51.400;7.480;2023-07-09T10:52:13;7.87;;;7.37;;
850;SDS011;412;51.400;7.480;2023-07-09T11:00:15;8.30;;;7.60;;
850;SDS011;412;51.400;7.480;2023-07-09T11:02:44;7.63;;;7.03;;
850;SDS011;412;51.400;7.480;2023-07-09T11:05:13;7.60;;;7.10;;
850;SDS011;412;51.400;7.480;2023-07-09T11:10:31;7.90;;;7.37;;
850;SDS011;412;51.400;7.480;2023-07-09T11:13:25;6.87;;;6.47;;
850;SDS011;412;51.400;7.480;2023-07-09T11:16:02;6.80;;;6.40;;
850;SDS011;412;51.400;7.480;2023-07-09T11:18:31;6.90;;;6.40;;
850;SDS011;412;51.400;7.480;2023-07-09T11:21:13;7.23;;;6.53;;
850;SDS011;412;51.400;7.480;2023-07-09T11:29:06;7.43;;;6.60;;
850;SDS011;412;51.400;7.480;2023-07-09T11:31:43;7.27;;;6.57;;
850;SDS011;412;51.400;7.480;2023-07-09T11:37:14;7.77;;;7.27;;
850;SDS011;412;51.400;7.480;2023-07-09T11:42:02;7.50;;;6.90;;
850;SDS011;412;51.400;7.480;2023-07-09T11:44:29;7.30;;;6.70;;
850;SDS011;412;51.400;7.480;2023-07-09T11:55:36;7.60;;;7.00;;
850;SDS011;412;51.400;7.480;2023-07-09T11:58:06;7.67;;;7.17;;
850;SDS011;412;51.400;7.480;2023-07-09T12:00:40;7.37;;;6.50;;
850;SDS011;412;51.400;7.480;2023-07-09T12:03:10;7.43;;;6.73;;
850;SDS011;412;51.400;7.480;2023-07-09T12:06:33;7.30;;;6.80;;
850;SDS011;412;51.400;7.480;2023-07-09T12:08:43;7.80;;;7.30;;
850;SDS011;412;51.400;7.480;2023-07-09T12:11:21;7.30;;;6.90;;
850;SDS011;412;51.400;7.480;2023-07-09T12:13:49;7.73;;;7.10;;
850;SDS011;412;51.400;7.480;2023-07-09T12:16:23;7.83;;;7.03;;
850;SDS011;412;51.400;7.480;2023-07-09T12:18:49;11.40;;;10.60;;
850;SDS011;412;51.400;7.480;2023-07-09T12:21:15;7.67;;;7.17;;
850;SDS011;412;51.400;7.480;2023-07-09T12:23:41;7.73;;;7.23;;
850;SDS011;412;51.400;7.480;2023-07-09T12:26:10;7.97;;;7.33;;
850;SDS011;412;51.400;7.480;2023-07-09T12:28:41;7.00;;;6.60;;
850;SDS011;412;51.400;7.480;2023-07-09T12:31:13;8.43;;;7.60;;
850;SDS011;412;51.400;7.480;2023-07-09T12:33:47;10.13;;;9.20;;
850;SDS011;412;51.400;7.480;2023-07-09T12:36:14;9.00;;;8.20;;
850;SDS011;412;51.400;7.480;2023-07-09T12:38:43;8.17;;;7.47;;
850;SDS011;412;51.400;7.480;2023-07-09T12:41:23;8.70;;;7.87;;
850;SDS011;412;51.400;7.480;2023-07-09T12:43:53;7.20;;;6.77;;
850;SDS011;412;51.400;7.480;2023-07-09T12:46:21;7.40;;;6.90;;
850;SDS011;412;51.400;7.480;2023-07-09T12:48:48;7.83;;;7.23;;
850;SDS011;412;51.400;7.480;2023-07-09T12:51:18;8.07;;;7.33;;
850;SDS011;412;51.400;7.480;2023-07-09T12:53:46;8.07;;;7.30;;
850;SDS011;412;51.400;7.480;2023-07-09T12:56:13;7.47;;;6.97;;
850;SDS011;412;51.400;7.480;2023-07-09T12:58:40;7.30;;;6.50;;
850;SDS011;412;51.400;7.480;2023-07-09T13:01:08;7.73;;;7.03;;
850;SDS011;412;51.400;7.480;2023-07-09T13:03:40;7.70;;;6.93;;
850;SDS011;412;51.400;7.480;2023-07-09T13:06:06;7.10;;;6.60;;
850;SDS011;412;51.400;7.480;2023-07-09T13:08:55;7.53;;;6.97;;
850;SDS011;412;51.400;7.480;2023-07-09T13:11:23;8.13;;;7.53;;
850;SDS011;412;51.400;7.480;2023-07-09T13:13:58;7.13;;;6.70;;
850;SDS011;412;51.400;7.480;2023-07-09T13:16:27;7.17;;;6.67;;
850;SDS011;412;51.400;7.480;2023-07-09T13:18:54;7.30;;;6.90;;
850;SDS011;412;51.400;7.480;2023-07-09T13:21:20;8.03;;;7.23;;
850;SDS011;412;51.400;7.480;2023-07-09T13:23:47;7.37;;;6.97;;
850;SDS011;412;51.400;7.480;2023-07-09T13:26:14;7.37;;;6.93;;
850;SDS011;412;51.400;7.480;2023-07-09T13:28:41;8.20;;;7.53;;
850;SDS011;412;51.400;7.480;2023-07-09T13:31:13;6.90;;;6.50;;
850;SDS011;412;51.400;7.480;2023-07-09T13:33:44;8.63;;;8.00;;
850;SDS011;412;51.400;7.480;2023-07-09T13:36:17;8.07;;;7.40;;
850;SDS011;412;51.400;7.480;2023-07-09T13:38:43;11.50;;;10.60;;
850;SDS011;412;51.400;7.480;2023-07-09T13:41:13;8.37;;;7.87;;
850;SDS011;412;51.400;7.480;2023-07-09T13:43:42;7.03;;;6.53;;
850;SDS011;412;51.400;7.480;2023-07-09T13:46:10;8.70;;;7.90;;
850;SDS011;412;51.400;7.480;2023-07-09T13:48:36;7.40;;;6.80;;
850;SDS011;412;51.400;7.480;2023-07-09T13:51:14;8.37;;;7.57;;
850;SDS011;412;51.400;7.480;2023-07-09T13:53:44;7.00;;;6.60;;
850;SDS011;412;51.400;7.480;2023-07-09T13:56:11;7.83;;;7.13;;
850;SDS011;412;51.400;7.480;2023-07-09T13:58:37;8.30;;;7.50;;
850;SDS011;412;51.400;7.480;2023-07-09T14:01:09;7.97;;;7.37;;
850;SDS011;412;51.400;7.480;2023-07-09T14:03:38;8.13;;;7.43;;
850;SDS011;412;51.400;7.480;2023-07-09T14:06:03;8.63;;;7.93;;
850;SDS011;412;51.400;7.480;2023-07-09T14:08:29;8.47;;;7.60;;
850;SDS011;412;51.400;7.480;2023-07-09T14:10:55;8.20;;;7.60;;
850;SDS011;412;51.400;7.480;2023-07-09T14:13:21;7.90;;;7.40;;
850;SDS011;412;51.400;7.480;2023-07-09T14:15:50;8.73;;;7.63;;
850;SDS011;412;51.400;7.480;2023-07-09T14:18:17;7.50;;;7.00;;
850;SDS011;412;51.400;7.480;2023-07-09T14:20:47;7.20;;;6.70;;
850;SDS011;412;51.400;7.480;2023-07-09T14:23:15;8.03;;;7.43;;
850;SDS011;412;51.400;7.480;2023-07-09T14:25:43;8.20;;;7.73;;
850;SDS011;412;51.400;7.480;2023-07-09T14:28:16;10.30;;;9.50;;
850;SDS011;412;51.400;7.480;2023-07-09T14:30:44;8.47;;;7.67;;
850;SDS011;412;51.400;7.480;2023-07-09T14:33:13;8.60;;;7.77;;
850;SDS011;412;51.400;7.480;2023-07-09T14:35:41;7.93;;;7.43;;
850;SDS011;412;51.400;7.480;2023-07-09T14:40:45;8.07;;;7.33;;
850;SDS011;412;51.400;7.480;2023-07-09T14:43:11;8.73;;;8.10;;
850;SDS011;412;51.400;7.480;2023-07-09T14:45:37;8.50;;;7.90;;
850;SDS011;412;51.400;7.480;2023-07-09T14:48:10;8.87;;;8.27;;
850;SDS011;412;51.400;7.480;2023-07-09T14:50:37;8.10;;;7.50;;
850;SDS011;412;51.400;7.480;2023-07-09T14:53:03;7.90;;;7.40;;
850;SDS011;412;51.400;7.480;2023-07-09T14:55:37;9.23;;;8.53;;
850;SDS011;412;51.400;7.480;2023-07-09T14:58:07;8.57;;;7.87;;
850;SDS011;412;51.400;7.480;2023-07-09T15:00:38;7.57;;;7.07;;
850;SDS011;412;51.400;7.480;2023-07-09T15:03:07;7.93;;;7.23;;
850;SDS011;412;51.400;7.480;2023-07-09T15:05:35;8.90;;;8.10;;
850;SDS011;412;51.400;7.480;2023-07-09T15:08:06;8.33;;;7.67;;
850;SDS011;412;51.400;7.480;2023-07-09T15:10:37;8.30;;;7.50;;
850;SDS011;412;51.400;7.480;2023-07-09T15:13:02;8.67;;;7.87;;
850;SDS011;412;51.400;7.480;2023-07-09T15:15:29;9.60;;;8.80;;
850;SDS011;412;51.400;7.480;2023-07-09T15:17:57;9.07;;;8.30;;
850;SDS011;412;51.400;7.480;2023-07-09T15:20:26;9.43;;;8.63;;
850;SDS011;412;51.400;7.480;2023-07-09T15:22:54;9.17;;;8.47;;
850;SDS011;412;51.400;7.480;2023-07-09T15:25:24;8.00;;;7.40;;
850;SDS011;412;51.400;7.480;2023-07-09T15:27:52;8.30;;;7.50;;
850;SDS011;412;51.400;7.480;2023-07-09T15:30:19;7.90;;;7.23;;
850;SDS011;412;51.400;7.480;2023-07-09T15:32:47;7.17;;;6.57;;
850;SDS011;412;51.400;7.480;2023-07-09T15:35:14;6.70;;;6.20;;
850;SDS011;412;51.400;7.480;2023-07-09T15:37:42;7.83;;;7.20;;
850;SDS011;412;51.400;7.480;2023-07-09T15:40:19;7.80;;;7.30;;
850;SDS011;412;51.400;7.480;2023-07-09T15:42:47;7.53;;;6.77;;
850;SDS011;412;51.400;7.480;2023-07-09T15:45:15;7.37;;;6.67;;
850;SDS011;412;51.400;7.480;2023-07-09T15:47:42;7.57;;;6.87;;
850;SDS011;412;51.400;7.480;2023-07-09T15:50:23;7.70;;;7.10;;
850;SDS011;412;51.400;7.480;2023-07-09T15:52:51;9.17;;;8.37;;
850;SDS011;412;51.400;7.480;2023-07-09T15:55:21;8.23;;;7.53;;
850;SDS011;412;51.400;7.480;2023-07-09T15:57:50;7.63;;;7.03;;
850;SDS011;412;51.400;7.480;2023-07-09T16:00:18;9.37;;;8.60;;
850;SDS011;412;51.400;7.480;2023-07-09T16:02:45;8.13;;;7.43;;
850;SDS011;412;51.400;7.480;2023-07-09T16:05:18;7.30;;;6.60;;
850;SDS011;412;51.400;7.480;2023-07-09T16:07:45;7.37;;;6.73;;
850;SDS011;412;51.400;7.480;2023-07-09T16:10:11;7.20;;;6.67;;
850;SDS011;412;51.400;7.480;2023-07-09T16:12:37;7.20;;;6.60;;
850;SDS011;412;51.400;7.480;2023-07-09T16:15:03;7.23;;;6.53;;
850;SDS011;412;51.400;7.480;2023-07-09T16:17:29;8.70;;;7.73;;
850;SDS011;412;51.400;7.480;2023-07-09T16:19:55;10.63;;;9.30;;
850;SDS011;412;51.400;7.480;2023-07-09T16:22:21;8.43;;;7.83;;
850;SDS011;412;51.400;7.480;2023-07-09T16:24:47;7.73;;;7.13;;
850;SDS011;412;51.400;7.480;2023-07-09T16:27:16;7.97;;;7.37;;
850;SDS011;412;51.400;7.480;2023-07-09T16:29:42;8.40;;;7.60;;
850;SDS011;412;51.400;7.480;2023-07-09T16:32:08;7.47;;;6.97;;
850;SDS011;412;51.400;7.480;2023-07-09T16:34:34;8.73;;;7.97;;
850;SDS011;412;51.400;7.480;2023-07-09T16:37:02;8.40;;;7.63;;
850;SDS011;412;51.400;7.480;2023-07-09T16:39:42;9.00;;;8.07;;
850;SDS011;412;51.400;7.480;2023-07-09T16:42:08;7.83;;;7.23;;
850;SDS011;412;51.400;7.480;2023-07-09T16:44:36;9.57;;;8.77;;
850;SDS011;412;51.400;7.480;2023-07-09T16:47:04;8.40;;;7.70;;